createdAt,value
2023-02-04T00:01:58.829Z,16.70
2023-02-04T00:04:27.034Z,16.70
2023-02-04T00:06:58.151Z,16.60
2023-02-04T00:09:29.823Z,16.60
2023-02-04T00:12:00.347Z,16.60
2023-02-04T00:14:30.629Z,16.60
2023-02-04T00:17:02.060Z,16.60
2023-02-04T00:19:42.663Z,16.60
2023-02-04T00:22:15.962Z,16.60
2023-02-04T00:24:48.297Z,16.60
2023-02-04T00:27:19.103Z,16.60
2023-02-04T00:29:50.320Z,16.60
2023-02-04T00:32:23.547Z,16.60
2023-02-04T00:34:56.181Z,16.60
2023-02-04T00:37:25.594Z,16.60
2023-02-04T00:39:59.620Z,16.60
2023-02-04T00:42:27.446Z,16.60
2023-02-04T00:44:55.463Z,16.60
2023-02-04T00:47:25.771Z,16.60
2023-02-04T00:49:55.802Z,16.60
2023-02-04T00:52:29.640Z,16.60
2023-02-04T00:55:01.101Z,16.60
2023-02-04T00:57:35.345Z,16.60
2023-02-04T01:00:05.241Z,16.50
2023-02-04T01:02:36.853Z,16.50
2023-02-04T01:05:07.166Z,16.50
2023-02-04T01:07:34.970Z,16.50
2023-02-04T01:10:14.833Z,16.50
2023-02-04T01:12:45.336Z,16.50
2023-02-04T01:15:16.958Z,16.50
2023-02-04T01:17:48.679Z,16.50
2023-02-04T01:20:19.357Z,16.50
2023-02-04T01:22:48.340Z,16.50
2023-02-04T01:25:20.282Z,16.50
2023-02-04T01:27:57.416Z,16.50
2023-02-04T01:30:26.565Z,16.50
2023-02-04T01:32:56.505Z,16.50
2023-02-04T01:35:27.036Z,16.50
2023-02-04T01:37:57.515Z,16.50
2023-02-04T01:40:31.275Z,16.50
2023-02-04T01:43:03.263Z,16.50
2023-02-04T01:45:35.680Z,16.50
2023-02-04T01:48:07.955Z,16.50
2023-02-04T01:50:39.502Z,16.50
2023-02-04T01:53:10.645Z,16.50
2023-02-04T01:55:43.999Z,16.50
2023-02-04T01:58:15.227Z,16.50
2023-02-04T02:00:45.947Z,16.40
2023-02-04T02:03:17.602Z,16.50
2023-02-04T02:05:55.861Z,16.40
2023-02-04T02:08:24.990Z,16.40
2023-02-04T02:10:56.298Z,16.50
2023-02-04T02:13:26.456Z,16.50
2023-02-04T02:15:56.750Z,16.50
2023-02-04T02:18:28.330Z,16.40
2023-02-04T02:20:57.974Z,16.40
2023-02-04T02:24:02.072Z,16.40
2023-02-04T02:26:36.861Z,16.40
2023-02-04T02:29:10.496Z,16.40
2023-02-04T02:31:41.000Z,16.40
2023-02-04T02:34:14.848Z,16.40
2023-02-04T02:36:49.694Z,16.40
2023-02-04T02:39:19.218Z,16.40
2023-02-04T02:41:51.017Z,16.40
2023-02-04T02:44:23.288Z,16.40
2023-02-04T02:46:54.580Z,16.40
2023-02-04T02:49:28.726Z,16.40
2023-02-04T02:52:01.902Z,16.40
2023-02-04T02:54:31.878Z,16.40
2023-02-04T02:57:00.485Z,16.40
2023-02-04T02:59:32.258Z,16.40
2023-02-04T03:02:08.860Z,16.40
2023-02-04T03:04:49.222Z,16.30
2023-02-04T03:07:30.980Z,16.40
2023-02-04T03:10:01.542Z,16.30
2023-02-04T03:12:32.086Z,16.40
2023-02-04T03:15:02.618Z,16.40
2023-02-04T03:17:34.321Z,16.40
2023-02-04T03:20:10.006Z,16.40
2023-02-04T03:22:46.829Z,16.40
2023-02-04T03:28:01.725Z,16.40
2023-02-04T03:30:32.213Z,16.40
2023-02-04T03:33:04.193Z,16.30
2023-02-04T03:35:32.237Z,16.40
2023-02-04T03:38:03.445Z,16.40
2023-02-04T03:40:33.961Z,16.30
2023-02-04T03:43:04.076Z,16.30
2023-02-04T03:45:44.686Z,16.30
2023-02-04T03:48:16.457Z,16.30
2023-02-04T03:50:46.820Z,16.30
2023-02-04T03:53:18.866Z,16.30
2023-02-04T03:55:50.425Z,16.30
2023-02-04T03:58:23.097Z,16.30
2023-02-04T04:00:53.292Z,16.30
2023-02-04T04:03:23.441Z,16.30
2023-02-04T04:05:55.953Z,16.30
2023-02-04T04:08:26.038Z,16.30
2023-02-04T04:10:57.062Z,16.30
2023-02-04T04:13:31.153Z,16.30
2023-02-04T04:18:43.832Z,16.30
2023-02-04T04:21:14.290Z,16.30
2023-02-04T04:23:45.780Z,16.30
2023-02-04T04:26:17.164Z,16.30
2023-02-04T04:28:48.650Z,16.30
2023-02-04T04:31:21.036Z,16.30
2023-02-04T04:33:52.838Z,16.30
2023-02-04T04:36:23.408Z,16.30
2023-02-04T04:38:59.144Z,16.30
2023-02-04T04:41:29.181Z,16.30
2023-02-04T04:43:58.289Z,16.30
2023-02-04T04:46:27.307Z,16.30
2023-02-04T04:48:59.882Z,16.30
2023-02-04T04:51:34.490Z,16.30
2023-02-04T04:54:05.607Z,16.30
2023-02-04T04:56:40.482Z,16.30
2023-02-04T04:59:12.560Z,16.30
2023-02-04T05:01:40.127Z,16.30
2023-02-04T05:04:15.387Z,16.30
2023-02-04T05:06:49.818Z,16.30
2023-02-04T05:09:20.202Z,16.30
2023-02-04T05:11:52.735Z,16.20
2023-02-04T05:14:24.172Z,16.30
2023-02-04T05:16:57.903Z,16.30
2023-02-04T05:19:26.950Z,16.30
2023-02-04T05:21:59.902Z,16.30
2023-02-04T05:24:31.012Z,16.20
2023-02-04T05:27:02.625Z,16.20
2023-02-04T05:32:17.505Z,16.20
2023-02-04T05:34:46.809Z,16.30
2023-02-04T05:37:24.060Z,16.30
2023-02-04T05:39:53.546Z,16.30
2023-02-04T05:42:24.966Z,16.30
2023-02-04T05:44:56.953Z,16.20
2023-02-04T05:47:27.132Z,16.20
2023-02-04T05:49:57.598Z,16.20
2023-02-04T05:52:28.706Z,16.20
2023-02-04T05:55:00.402Z,16.20
2023-02-04T05:57:29.789Z,16.20
2023-02-04T06:00:01.405Z,16.20
2023-02-04T06:02:33.579Z,16.20
2023-02-04T06:07:50.233Z,16.20
2023-02-04T06:10:24.052Z,16.20
2023-02-04T06:12:55.048Z,16.20
2023-02-04T06:15:26.981Z,16.20
2023-02-04T06:17:56.302Z,16.20
2023-02-04T06:20:26.937Z,16.20
2023-02-04T06:22:57.372Z,16.20
2023-02-04T06:25:30.053Z,16.20
2023-02-04T06:28:01.489Z,16.20
2023-02-04T06:30:32.895Z,16.20
2023-02-04T06:33:05.709Z,16.20
2023-02-04T06:35:36.746Z,16.20
2023-02-04T06:38:08.309Z,16.20
2023-02-04T06:40:47.198Z,16.20
2023-02-04T06:43:17.763Z,16.20
2023-02-04T06:45:49.253Z,16.20
2023-02-04T06:48:37.412Z,16.20
2023-02-04T06:51:05.982Z,16.20
2023-02-04T06:53:37.695Z,16.10
2023-02-04T06:56:09.914Z,16.20
2023-02-04T06:58:37.444Z,16.20
2023-02-04T07:01:08.365Z,16.20
2023-02-04T07:03:42.857Z,16.20
2023-02-04T07:06:16.058Z,16.20
2023-02-04T07:08:47.203Z,16.20
2023-02-04T07:11:18.599Z,16.20
2023-02-04T07:13:45.810Z,16.20
2023-02-04T07:16:18.002Z,16.10
2023-02-04T07:18:51.359Z,16.20
2023-02-04T07:21:21.666Z,16.20
2023-02-04T07:23:52.000Z,16.10
2023-02-04T07:26:25.802Z,16.20
2023-02-04T07:28:57.387Z,16.10
2023-02-04T07:31:27.165Z,16.10
2023-02-04T07:34:03.309Z,16.10
2023-02-04T07:36:35.868Z,16.10
2023-02-04T07:39:07.738Z,16.10
2023-02-04T07:41:39.473Z,16.10
2023-02-04T07:44:19.984Z,16.10
2023-02-04T07:46:49.191Z,16.10
2023-02-04T07:49:19.108Z,16.10
2023-02-04T07:51:47.214Z,16.10
2023-02-04T07:54:17.020Z,16.10
2023-02-04T07:56:46.152Z,16.20
2023-02-04T07:59:16.225Z,16.20
2023-02-04T08:04:32.702Z,16.20
2023-02-04T08:07:02.078Z,16.20
2023-02-04T08:09:33.594Z,16.20
2023-02-04T08:12:04.818Z,16.20
2023-02-04T08:14:32.819Z,16.30
2023-02-04T08:17:00.856Z,16.30
2023-02-04T08:19:27.766Z,16.30
2023-02-04T08:21:57.658Z,16.40
2023-02-04T08:24:27.883Z,16.50
2023-02-04T08:26:57.239Z,16.50
2023-02-04T08:29:27.523Z,16.60
2023-02-04T08:31:56.632Z,16.70
2023-02-04T08:34:28.395Z,16.60
2023-02-04T08:37:01.539Z,16.70
2023-02-04T08:39:32.774Z,16.80
2023-02-04T08:42:04.667Z,16.80
2023-02-04T08:44:31.356Z,16.90
2023-02-04T08:47:00.131Z,16.90
2023-02-04T08:49:33.459Z,16.90
2023-02-04T08:52:05.094Z,16.90
2023-02-04T08:54:37.445Z,17.00
2023-02-04T08:57:08.843Z,17.00
2023-02-04T08:59:39.066Z,17.10
2023-02-04T09:02:11.955Z,17.10
2023-02-04T09:04:43.278Z,17.10
2023-02-04T09:07:16.287Z,17.10
2023-02-04T09:09:47.998Z,17.20
2023-02-04T09:12:17.554Z,17.20
2023-02-04T09:17:30.155Z,17.30
2023-02-04T09:20:00.470Z,17.30
2023-02-04T09:22:31.127Z,17.30
2023-02-04T09:24:59.625Z,17.30
2023-02-04T09:27:31.133Z,17.30
2023-02-04T09:30:07.762Z,17.40
2023-02-04T09:32:38.478Z,17.40
2023-02-04T09:35:11.994Z,17.50
2023-02-04T09:37:48.322Z,17.50
2023-02-04T09:40:18.052Z,17.60
2023-02-04T09:42:56.866Z,17.60
2023-02-04T09:45:32.740Z,17.60
2023-02-04T09:48:06.869Z,17.70
2023-02-04T09:50:38.220Z,17.80
2023-02-04T09:53:17.249Z,17.80
2023-02-04T09:55:53.541Z,17.90
2023-02-04T09:58:34.505Z,17.90
2023-02-04T10:01:31.567Z,17.90
2023-02-04T10:04:04.925Z,18.00
2023-02-04T10:06:35.294Z,18.00
2023-02-04T10:09:01.966Z,18.00
2023-02-04T10:11:44.235Z,18.00
2023-02-04T10:14:35.964Z,18.10
2023-02-04T10:17:07.496Z,18.00
2023-02-04T10:19:41.166Z,18.00
2023-02-04T10:22:23.497Z,18.00
2023-02-04T10:24:55.265Z,18.00
2023-02-04T10:27:26.859Z,18.00
2023-02-04T10:30:01.771Z,17.90
